createdAt,value
2023-09-27T00:00:01.851Z,76.65
2023-09-27T00:02:28.988Z,76.57
2023-09-27T00:04:56.067Z,76.41
2023-09-27T00:07:22.958Z,76.35
2023-09-27T00:09:49.629Z,76.52
2023-09-27T00:12:16.828Z,76.46
2023-09-27T00:14:43.451Z,77.00
2023-09-27T00:17:10.162Z,76.76
2023-09-27T00:19:36.892Z,76.83
2023-09-27T00:22:03.633Z,76.87
2023-09-27T00:24:30.217Z,76.90
2023-09-27T00:26:56.851Z,77.19
2023-09-27T00:29:23.578Z,77.25
2023-09-27T00:31:50.297Z,77.38
2023-09-27T00:34:17.037Z,76.82
2023-09-27T00:36:43.744Z,77.21
2023-09-27T00:39:10.458Z,77.10
2023-09-27T00:41:37.002Z,77.46
2023-09-27T00:44:03.741Z,77.56
2023-09-27T00:46:30.623Z,77.54
2023-09-27T00:48:57.789Z,77.68
2023-09-27T00:51:24.431Z,77.35
2023-09-27T00:53:51.218Z,77.68
2023-09-27T00:56:18.127Z,77.65
2023-09-27T00:58:44.932Z,77.84
2023-09-27T01:01:14.190Z,77.93
2023-09-27T01:03:42.029Z,78.13
2023-09-27T01:06:09.660Z,78.13
2023-09-27T01:08:36.356Z,77.99
2023-09-27T01:11:05.473Z,78.09
2023-09-27T01:13:32.852Z,78.22
2023-09-27T01:15:59.472Z,78.02
2023-09-27T01:18:27.617Z,77.97
2023-09-27T01:20:54.346Z,77.88
2023-09-27T01:23:21.048Z,77.88
2023-09-27T01:25:51.909Z,78.00
2023-09-27T01:28:22.331Z,77.68
2023-09-27T01:30:48.946Z,77.66
2023-09-27T01:33:15.620Z,77.80
2023-09-27T01:35:44.905Z,77.62
2023-09-27T01:38:13.888Z,77.95
2023-09-27T01:40:45.696Z,77.75
2023-09-27T01:43:13.113Z,77.84
2023-09-27T01:45:40.252Z,77.90
2023-09-27T01:48:07.619Z,77.67
2023-09-27T01:50:36.140Z,77.52
2023-09-27T01:53:04.392Z,77.70
2023-09-27T01:55:31.294Z,77.81
2023-09-27T01:57:58.075Z,77.58
2023-09-27T02:00:24.804Z,77.61
2023-09-27T02:02:56.893Z,77.63
2023-09-27T02:05:24.685Z,77.77
2023-09-27T02:07:51.462Z,77.74
2023-09-27T02:10:18.096Z,77.83
2023-09-27T02:12:45.891Z,77.76
2023-09-27T02:15:14.376Z,77.59
2023-09-27T02:17:41.618Z,77.64
2023-09-27T02:20:11.391Z,77.71
2023-09-27T02:22:39.321Z,77.73
2023-09-27T02:25:12.811Z,77.75
2023-09-27T02:27:40.808Z,77.85
2023-09-27T02:30:12.403Z,77.64
2023-09-27T02:32:42.087Z,77.79
2023-09-27T02:35:10.496Z,78.10
2023-09-27T02:37:38.055Z,78.08
2023-09-27T02:40:14.798Z,77.89
2023-09-27T02:42:42.792Z,77.65
2023-09-27T02:45:10.566Z,77.84
2023-09-27T02:47:41.615Z,77.74
2023-09-27T02:50:12.297Z,77.88
2023-09-27T02:52:41.780Z,77.80
2023-09-27T02:55:12.289Z,77.96
2023-09-27T02:57:39.844Z,77.92
2023-09-27T03:00:07.878Z,77.77
2023-09-27T03:02:35.386Z,77.85
2023-09-27T03:05:05.833Z,77.81
2023-09-27T03:07:35.236Z,77.99
2023-09-27T03:10:09.861Z,78.31
2023-09-27T03:12:36.620Z,77.83
2023-09-27T03:15:04.377Z,78.19
2023-09-27T03:17:31.389Z,78.45
2023-09-27T03:19:58.178Z,78.09
2023-09-27T03:22:24.775Z,78.22
2023-09-27T03:24:52.490Z,78.13
2023-09-27T03:27:19.991Z,78.18
2023-09-27T03:29:47.522Z,78.22
2023-09-27T03:32:14.137Z,78.31
2023-09-27T03:34:40.774Z,78.09
2023-09-27T03:37:07.413Z,78.50
2023-09-27T03:39:37.031Z,78.06
2023-09-27T03:42:04.316Z,78.01
2023-09-27T03:44:31.034Z,78.19
2023-09-27T03:46:57.842Z,77.97
2023-09-27T03:49:24.620Z,77.96
2023-09-27T03:51:51.263Z,77.98
2023-09-27T03:54:17.820Z,77.92
2023-09-27T03:56:44.386Z,78.12
2023-09-27T03:59:11.293Z,78.03
2023-09-27T04:01:38.339Z,77.78
2023-09-27T04:04:06.349Z,78.19
2023-09-27T04:06:33.039Z,77.83
2023-09-27T04:08:59.546Z,77.75
2023-09-27T04:11:26.224Z,77.68
2023-09-27T04:13:53.066Z,77.56
2023-09-27T04:16:19.769Z,77.66
2023-09-27T04:18:46.443Z,77.54
2023-09-27T04:21:13.516Z,77.73
2023-09-27T04:23:42.507Z,77.42
2023-09-27T04:26:10.438Z,77.79
2023-09-27T04:28:37.259Z,77.50
2023-09-27T04:31:05.220Z,77.59
2023-09-27T04:33:32.882Z,77.66
2023-09-27T04:36:00.720Z,77.74
2023-09-27T04:38:27.680Z,77.74
2023-09-27T04:40:54.318Z,77.85
2023-09-27T04:43:21.383Z,77.72
2023-09-27T04:45:50.225Z,77.67
2023-09-27T04:48:16.992Z,77.53
2023-09-27T04:50:43.703Z,77.90
2023-09-27T04:53:10.941Z,77.94
2023-09-27T04:55:37.668Z,77.86
2023-09-27T04:58:04.559Z,77.86
2023-09-27T05:00:31.275Z,77.94
2023-09-27T05:02:58.261Z,78.00
2023-09-27T05:05:28.550Z,78.01
2023-09-27T05:07:55.313Z,78.35
2023-09-27T05:10:21.979Z,77.93
2023-09-27T05:13:01.677Z,78.15
2023-09-27T05:15:28.603Z,78.05
2023-09-27T05:17:55.363Z,78.13
2023-09-27T05:20:22.020Z,78.40
2023-09-27T05:22:48.765Z,78.04
2023-09-27T05:25:34.181Z,78.15
2023-09-27T05:28:00.856Z,78.09
2023-09-27T05:30:27.900Z,78.11
2023-09-27T05:32:54.631Z,78.28
2023-09-27T05:35:21.543Z,78.33
2023-09-27T05:37:48.119Z,78.45
2023-09-27T05:40:14.926Z,78.33
2023-09-27T05:42:42.022Z,78.12
2023-09-27T05:45:12.242Z,78.30
2023-09-27T05:47:40.424Z,78.13
2023-09-27T05:50:13.656Z,78.17
2023-09-27T05:52:45.366Z,78.29
2023-09-27T05:55:12.768Z,78.26
2023-09-27T05:57:39.958Z,78.26
2023-09-27T06:00:15.873Z,78.14
2023-09-27T06:02:42.553Z,78.29
2023-09-27T06:05:09.671Z,78.10
2023-09-27T06:07:36.609Z,78.11
2023-09-27T06:10:03.898Z,78.09
2023-09-27T06:12:30.444Z,78.30
2023-09-27T06:14:57.092Z,78.58
2023-09-27T06:17:24.289Z,78.64
2023-09-27T06:19:51.013Z,78.60
2023-09-27T06:22:18.148Z,78.38
2023-09-27T06:24:47.175Z,78.50
2023-09-27T06:27:13.794Z,78.21
2023-09-27T06:29:40.617Z,78.49
2023-09-27T06:32:07.793Z,78.55
2023-09-27T06:34:36.925Z,78.33
2023-09-27T06:37:03.552Z,78.38
2023-09-27T06:39:30.385Z,78.13
2023-09-27T06:41:57.067Z,78.20
2023-09-27T06:44:23.712Z,78.41
2023-09-27T06:46:51.100Z,78.27
2023-09-27T06:49:18.131Z,78.11
2023-09-27T06:51:45.350Z,78.27
2023-09-27T06:54:12.008Z,77.95
2023-09-27T06:56:38.777Z,77.97
2023-09-27T06:59:06.758Z,78.00
2023-09-27T07:01:33.744Z,78.21
2023-09-27T07:04:00.677Z,77.95
2023-09-27T07:06:27.301Z,78.12
2023-09-27T07:08:59.216Z,78.14
2023-09-27T07:11:26.310Z,78.11
2023-09-27T07:13:53.442Z,78.21
2023-09-27T07:16:29.889Z,78.25
2023-09-27T07:19:00.781Z,78.38
2023-09-27T07:21:29.331Z,78.17
2023-09-27T07:23:56.368Z,78.49
2023-09-27T07:26:23.255Z,78.48
2023-09-27T07:28:50.501Z,78.57
2023-09-27T07:31:18.385Z,78.75
2023-09-27T07:33:46.487Z,78.78
2023-09-27T07:36:13.493Z,78.73
2023-09-27T07:38:41.156Z,78.84
2023-09-27T07:41:11.681Z,78.74
2023-09-27T07:43:38.344Z,79.00
2023-09-27T07:46:08.490Z,78.96
2023-09-27T07:48:39.481Z,79.18
2023-09-27T07:51:13.163Z,79.15
2023-09-27T07:53:40.390Z,79.12
2023-09-27T07:56:10.752Z,79.43
2023-09-27T07:58:38.434Z,79.16
2023-09-27T08:01:06.143Z,79.26
2023-09-27T08:03:33.266Z,79.28
2023-09-27T08:06:00.252Z,79.39
2023-09-27T08:08:55.941Z,79.30
2023-09-27T08:11:23.172Z,79.13
2023-09-27T08:13:50.057Z,78.74
2023-09-27T08:16:17.464Z,78.77
2023-09-27T08:18:44.515Z,78.40
2023-09-27T08:21:11.496Z,78.52
2023-09-27T08:23:38.663Z,78.53
2023-09-27T08:26:05.363Z,78.58
2023-09-27T08:28:33.128Z,78.60
2023-09-27T08:31:59.278Z,78.30
2023-09-27T08:34:26.393Z,78.11
2023-09-27T08:36:53.769Z,78.28
2023-09-27T08:40:08.816Z,78.19
2023-09-27T08:42:35.725Z,78.13
2023-09-27T08:45:03.807Z,77.82
2023-09-27T08:47:32.574Z,78.01
2023-09-27T08:49:59.835Z,77.87
2023-09-27T08:52:28.651Z,77.66
2023-09-27T08:54:55.198Z,77.56
2023-09-27T08:57:24.591Z,77.64
2023-09-27T08:59:51.493Z,77.55
2023-09-27T09:02:20.071Z,77.66
2023-09-27T09:04:47.302Z,77.66
2023-09-27T09:07:14.112Z,77.39
2023-09-27T09:09:41.902Z,77.18
2023-09-27T09:12:10.205Z,77.20
2023-09-27T09:14:45.980Z,77.21
2023-09-27T09:17:18.976Z,76.99
2023-09-27T09:20:16.274Z,77.08
2023-09-27T09:22:44.355Z,76.96
2023-09-27T09:25:11.113Z,77.22
2023-09-27T09:27:38.992Z,77.18
2023-09-27T09:30:11.209Z,77.28
2023-09-27T09:32:50.590Z,77.55
2023-09-27T09:35:46.875Z,77.42
2023-09-27T09:38:23.154Z,77.46
2023-09-27T09:41:01.574Z,77.53
2023-09-27T09:43:37.478Z,77.51
2023-09-27T09:46:07.817Z,77.58
2023-09-27T09:48:35.904Z,77.44
2023-09-27T09:51:08.586Z,77.32
2023-09-27T09:53:42.414Z,77.35
2023-09-27T09:58:49.045Z,77.40
2023-09-27T10:01:22.438Z,77.18
2023-09-27T10:03:54.361Z,76.81
2023-09-27T10:06:36.463Z,76.74
2023-09-27T10:09:16.106Z,76.82
2023-09-27T10:11:47.354Z,76.59
2023-09-27T10:14:17.185Z,76.64
2023-09-27T10:16:44.784Z,76.58
2023-09-27T10:19:11.886Z,76.30
2023-09-27T10:22:04.045Z,76.14
2023-09-27T10:24:30.808Z,75.83
2023-09-27T10:26:57.518Z,75.84
2023-09-27T10:29:24.157Z,75.59
2023-09-27T10:31:57.409Z,75.82
2023-09-27T10:34:29.926Z,75.49
2023-09-27T10:37:10.416Z,75.60
2023-09-27T10:40:20.446Z,75.31
2023-09-27T10:42:47.284Z,75.01
2023-09-27T10:45:14.123Z,75.01
2023-09-27T10:47:41.684Z,74.88
2023-09-27T10:50:10.442Z,74.71
2023-09-27T10:52:38.535Z,74.86
2023-09-27T10:55:12.968Z,74.57
2023-09-27T10:57:42.927Z,74.86
2023-09-27T11:00:14.099Z,74.47
2023-09-27T11:02:43.025Z,74.53
2023-09-27T11:05:10.638Z,74.07
2023-09-27T11:07:49.872Z,73.96
2023-09-27T11:10:31.905Z,74.29
2023-09-27T11:13:13.299Z,73.96
2023-09-27T11:15:41.158Z,74.01
2023-09-27T11:18:14.280Z,73.77
2023-09-27T11:20:41.391Z,73.93
2023-09-27T11:23:08.414Z,73.87
2023-09-27T11:25:37.446Z,73.48
2023-09-27T11:28:04.775Z,73.71
2023-09-27T11:30:33.675Z,73.44
2023-09-27T11:33:06.716Z,72.69
2023-09-27T11:35:33.845Z,72.51
2023-09-27T11:38:14.621Z,71.97
2023-09-27T11:40:44.768Z,72.17
2023-09-27T11:43:13.373Z,71.81
2023-09-27T11:45:45.120Z,71.20
2023-09-27T11:48:12.090Z,70.56
2023-09-27T11:50:39.083Z,69.91
2023-09-27T11:53:06.198Z,68.59
2023-09-27T11:55:32.934Z,67.39
2023-09-27T11:58:00.480Z,65.45
2023-09-27T12:00:27.501Z,64.25
2023-09-27T12:02:57.975Z,62.93
2023-09-27T12:05:26.219Z,61.56
2023-09-27T12:07:53.840Z,60.77
2023-09-27T12:10:20.795Z,60.71
2023-09-27T12:12:47.494Z,61.13
2023-09-27T12:15:14.209Z,61.65
2023-09-27T12:17:40.883Z,61.75
2023-09-27T12:20:15.574Z,62.52
2023-09-27T12:22:43.635Z,63.42
2023-09-27T12:25:11.172Z,64.10
2023-09-27T12:27:37.808Z,64.63
2023-09-27T12:30:06.457Z,64.86
2023-09-27T12:32:33.352Z,65.02
2023-09-27T12:35:00.004Z,65.45
2023-09-27T12:37:27.085Z,65.77
2023-09-27T12:39:53.703Z,65.71
2023-09-27T12:42:20.402Z,66.00
2023-09-27T12:44:47.377Z,65.86
2023-09-27T12:47:16.131Z,65.68
2023-09-27T12:49:42.716Z,65.93
2023-09-27T12:52:09.179Z,66.30
2023-09-27T12:54:35.712Z,66.27
2023-09-27T12:57:02.322Z,66.04
2023-09-27T12:59:29.071Z,66.32
2023-09-27T13:01:56.868Z,66.42
2023-09-27T13:04:23.638Z,66.24
2023-09-27T13:06:50.420Z,66.48
2023-09-27T13:09:18.755Z,66.37
2023-09-27T13:11:45.521Z,66.64
2023-09-27T13:14:12.338Z,66.66
2023-09-27T13:16:38.954Z,66.67
2023-09-27T13:19:05.881Z,66.66
2023-09-27T13:21:32.384Z,66.80
2023-09-27T13:23:59.067Z,66.43
2023-09-27T13:26:27.382Z,66.73
2023-09-27T13:28:54.556Z,64.14
2023-09-27T13:31:21.939Z,63.63
2023-09-27T13:33:58.929Z,62.73
2023-09-27T13:36:38.199Z,61.96
2023-09-27T13:39:07.261Z,60.88
2023-09-27T13:41:43.181Z,60.85
2023-09-27T13:44:13.389Z,59.92
2023-09-27T13:46:40.567Z,60.34
2023-09-27T13:49:07.791Z,60.12
2023-09-27T13:51:37.381Z,59.04
2023-09-27T13:54:05.697Z,59.20
2023-09-27T13:56:32.341Z,59.29
2023-09-27T13:58:58.947Z,59.03
2023-09-27T14:01:26.005Z,59.09
2023-09-27T14:03:54.309Z,58.86
2023-09-27T14:06:24.404Z,58.77
2023-09-27T14:08:56.337Z,58.90
2023-09-27T14:11:24.160Z,59.18
2023-09-27T14:13:51.117Z,58.69
2023-09-27T14:16:18.147Z,58.95
2023-09-27T14:18:45.507Z,59.23
2023-09-27T14:21:14.022Z,58.74
2023-09-27T14:23:43.575Z,58.49
2023-09-27T14:26:12.006Z,58.70
2023-09-27T14:28:38.873Z,59.40
2023-09-27T14:31:06.713Z,59.18
2023-09-27T14:33:35.057Z,59.40
2023-09-27T14:36:05.333Z,59.55
2023-09-27T14:38:35.990Z,60.19
2023-09-27T14:41:10.159Z,60.45
2023-09-27T14:43:40.874Z,60.74
2023-09-27T14:46:12.068Z,61.17
2023-09-27T14:48:39.762Z,61.84
2023-09-27T14:51:07.175Z,62.38
2023-09-27T14:53:33.917Z,62.21
2023-09-27T14:56:08.061Z,62.63
2023-09-27T14:58:35.499Z,63.22
2023-09-27T15:01:03.758Z,63.41
2023-09-27T15:03:30.613Z,63.51
2023-09-27T15:05:57.547Z,63.86
2023-09-27T15:08:24.277Z,64.06
2023-09-27T15:10:51.076Z,64.11
2023-09-27T15:13:18.505Z,64.72
2023-09-27T15:15:46.529Z,64.83
2023-09-27T15:18:15.993Z,64.90
2023-09-27T15:20:43.131Z,64.80
2023-09-27T15:23:13.061Z,65.23
2023-09-27T15:25:40.196Z,65.39
2023-09-27T15:28:06.879Z,65.48
2023-09-27T15:30:34.658Z,65.57
2023-09-27T15:33:01.308Z,65.80
2023-09-27T15:35:28.068Z,66.11
2023-09-27T15:37:57.124Z,66.02
2023-09-27T15:40:24.794Z,66.53
2023-09-27T15:42:55.478Z,66.11
2023-09-27T15:45:23.011Z,66.44
2023-09-27T15:47:50.554Z,66.58
2023-09-27T15:50:17.521Z,66.55
2023-09-27T15:52:44.337Z,66.92
2023-09-27T15:55:11.912Z,66.91
2023-09-27T15:57:41.695Z,67.11
2023-09-27T16:00:12.511Z,67.55
2023-09-27T16:02:40.014Z,67.33
2023-09-27T16:05:09.689Z,67.45
2023-09-27T16:07:36.360Z,67.47
2023-09-27T16:10:05.360Z,67.82
2023-09-27T16:12:32.196Z,67.91
2023-09-27T16:14:58.842Z,67.93
2023-09-27T16:17:56.324Z,68.09
2023-09-27T16:20:22.976Z,68.24
2023-09-27T16:22:50.404Z,68.41
2023-09-27T16:25:17.566Z,68.64
2023-09-27T16:27:44.419Z,68.69
2023-09-27T16:30:12.483Z,68.97
2023-09-27T16:32:40.985Z,69.01
2023-09-27T16:35:08.142Z,69.24
2023-09-27T16:37:35.147Z,69.15
2023-09-27T16:40:02.421Z,69.45
2023-09-27T16:42:29.338Z,69.80
2023-09-27T16:44:56.274Z,69.89
2023-09-27T16:47:22.937Z,70.13
2023-09-27T16:49:50.280Z,70.42
2023-09-27T16:52:17.110Z,70.52
2023-09-27T16:54:44.227Z,70.35
2023-09-27T16:57:11.588Z,70.27
2023-09-27T16:59:38.371Z,70.21
2023-09-27T17:02:05.235Z,70.19
2023-09-27T17:04:34.991Z,70.70
2023-09-27T17:07:02.923Z,70.61
2023-09-27T17:09:29.825Z,70.99
2023-09-27T17:11:57.978Z,71.24
2023-09-27T17:14:24.622Z,71.22
2023-09-27T17:16:51.521Z,70.92
2023-09-27T17:19:25.360Z,71.51
2023-09-27T17:21:54.329Z,71.35
2023-09-27T17:24:22.318Z,71.31
2023-09-27T17:26:49.523Z,71.52
2023-09-27T17:29:17.196Z,71.77
2023-09-27T17:31:44.448Z,71.98
2023-09-27T17:34:14.658Z,71.55
2023-09-27T17:36:41.310Z,72.04
2023-09-27T17:39:08.249Z,71.85
2023-09-27T17:41:35.047Z,71.85
2023-09-27T17:44:01.770Z,72.34
2023-09-27T17:46:29.261Z,72.19
2023-09-27T17:49:01.151Z,72.53
2023-09-27T17:51:28.200Z,72.60
2023-09-27T17:53:55.044Z,72.59
2023-09-27T17:56:21.914Z,72.84
2023-09-27T17:58:48.874Z,72.80
2023-09-27T18:03:42.748Z,73.05
2023-09-27T18:06:14.093Z,73.25
2023-09-27T18:08:41.146Z,73.20
2023-09-27T18:11:09.897Z,73.39
2023-09-27T18:13:36.872Z,73.38
2023-09-27T18:16:04.015Z,73.10
2023-09-27T18:18:30.707Z,73.20
2023-09-27T18:20:57.306Z,73.09
2023-09-27T18:23:23.927Z,73.39
2023-09-27T18:25:50.635Z,73.39
2023-09-27T18:28:17.807Z,73.27
2023-09-27T18:30:44.442Z,73.44
2023-09-27T18:33:11.162Z,73.62
2023-09-27T18:35:37.778Z,73.79
2023-09-27T18:38:04.510Z,73.86
2023-09-27T18:40:31.432Z,73.55
2023-09-27T18:42:58.051Z,73.71
2023-09-27T18:45:24.717Z,74.13
2023-09-27T18:47:52.794Z,73.96
2023-09-27T18:50:20.351Z,73.80
2023-09-27T18:52:47.401Z,74.02
2023-09-27T18:55:14.134Z,74.09
2023-09-27T18:57:40.781Z,73.88
2023-09-27T19:00:09.026Z,73.87
2023-09-27T19:02:35.974Z,74.02
2023-09-27T19:05:02.805Z,73.56
2023-09-27T19:07:29.553Z,74.00
2023-09-27T19:09:56.994Z,74.15
2023-09-27T19:12:24.012Z,74.17
2023-09-27T19:14:50.751Z,74.21
2023-09-27T19:17:17.386Z,74.62
2023-09-27T19:19:45.144Z,74.55
2023-09-27T19:22:12.152Z,74.78
2023-09-27T19:24:39.254Z,74.83
2023-09-27T19:27:05.819Z,73.99
2023-09-27T19:29:33.340Z,73.88
2023-09-27T19:32:00.101Z,74.38
2023-09-27T19:34:26.853Z,74.34
2023-09-27T19:36:53.465Z,74.24
2023-09-27T19:39:20.445Z,74.26
2023-09-27T19:41:47.134Z,74.22
2023-09-27T19:44:14.114Z,74.28
2023-09-27T19:46:40.900Z,74.19
2023-09-27T19:49:07.631Z,74.52
2023-09-27T19:51:34.286Z,74.46
2023-09-27T19:54:01.778Z,74.30
2023-09-27T19:56:28.398Z,74.12
2023-09-27T19:58:55.114Z,74.17
2023-09-27T20:01:35.596Z,74.03
2023-09-27T20:04:02.942Z,74.14
2023-09-27T20:06:31.175Z,74.01
2023-09-27T20:08:57.849Z,74.10
2023-09-27T20:11:24.653Z,74.12
2023-09-27T20:13:51.508Z,74.00
2023-09-27T20:16:18.224Z,73.88
2023-09-27T20:18:45.662Z,74.12
2023-09-27T20:21:12.286Z,73.97
2023-09-27T20:23:39.749Z,74.14
2023-09-27T20:26:06.949Z,74.27
2023-09-27T20:28:33.746Z,74.21
2023-09-27T20:31:00.442Z,74.05
2023-09-27T20:33:27.330Z,74.17
2023-09-27T20:35:53.979Z,73.93
2023-09-27T20:38:20.598Z,74.04
2023-09-27T20:40:47.269Z,74.00
2023-09-27T20:43:13.971Z,73.82
2023-09-27T20:45:41.111Z,73.97
2023-09-27T20:48:07.867Z,74.15
2023-09-27T20:50:34.539Z,74.05
2023-09-27T20:53:01.186Z,74.06
2023-09-27T20:55:27.881Z,74.27
2023-09-27T20:57:54.572Z,74.51
2023-09-27T21:00:23.546Z,74.21
2023-09-27T21:02:50.507Z,74.34
2023-09-27T21:05:17.374Z,74.09
2023-09-27T21:07:44.140Z,74.57
2023-09-27T21:10:10.977Z,74.57
2023-09-27T21:12:37.630Z,74.65
2023-09-27T21:15:04.706Z,74.71
2023-09-27T21:17:31.809Z,74.57
2023-09-27T21:19:58.571Z,74.72
2023-09-27T21:22:25.302Z,74.72
2023-09-27T21:24:51.936Z,74.76
2023-09-27T21:27:18.749Z,74.78
2023-09-27T21:29:45.349Z,75.19
2023-09-27T21:32:12.086Z,74.88
2023-09-27T21:34:38.749Z,75.36
2023-09-27T21:37:05.395Z,75.03
2023-09-27T21:39:32.042Z,75.03
2023-09-27T21:41:58.743Z,75.10
2023-09-27T21:44:25.473Z,74.85
2023-09-27T21:46:53.773Z,74.88
2023-09-27T21:49:21.280Z,74.91
2023-09-27T21:51:48.944Z,75.14
2023-09-27T21:54:16.029Z,74.79
2023-09-27T21:56:43.733Z,74.87
2023-09-27T21:59:10.433Z,74.89
2023-09-27T22:01:38.128Z,74.80
2023-09-27T22:04:06.911Z,74.89
2023-09-27T22:06:33.562Z,74.79
2023-09-27T22:09:00.408Z,75.01
2023-09-27T22:11:27.013Z,74.85
2023-09-27T22:13:54.769Z,74.98
2023-09-27T22:16:26.201Z,75.02
2023-09-27T22:18:52.802Z,75.25
2023-09-27T22:21:31.794Z,75.14
2023-09-27T22:24:11.424Z,75.33
2023-09-27T22:26:56.337Z,74.83
2023-09-27T22:29:22.941Z,74.86
2023-09-27T22:31:49.557Z,74.75
2023-09-27T22:34:38.808Z,74.77
2023-09-27T22:37:06.004Z,74.39
2023-09-27T22:39:32.729Z,75.12
2023-09-27T22:42:03.392Z,74.80
2023-09-27T22:44:30.014Z,74.71
2023-09-27T22:47:00.135Z,74.86
2023-09-27T22:49:27.480Z,74.86
2023-09-27T22:51:54.337Z,75.06
2023-09-27T22:54:22.829Z,74.88
2023-09-27T22:56:52.097Z,74.79
2023-09-27T22:59:18.784Z,74.51
2023-09-27T23:01:47.562Z,75.00
2023-09-27T23:04:17.249Z,74.55
2023-09-27T23:07:01.220Z,74.84
2023-09-27T23:09:35.347Z,74.99
2023-09-27T23:12:17.965Z,74.91
2023-09-27T23:15:08.350Z,74.85
2023-09-27T23:17:56.035Z,74.54
2023-09-27T23:20:29.605Z,74.70
2023-09-27T23:22:57.817Z,74.91
2023-09-27T23:25:40.976Z,75.09
2023-09-27T23:28:08.021Z,74.65
2023-09-27T23:30:34.741Z,74.92
2023-09-27T23:33:01.638Z,75.04
2023-09-27T23:35:31.440Z,75.06
2023-09-27T23:38:30.789Z,75.14
2023-09-27T23:41:00.434Z,74.81
2023-09-27T23:43:40.997Z,74.80
2023-09-27T23:46:15.086Z,75.08
2023-09-27T23:48:43.375Z,75.27
2023-09-27T23:51:09.977Z,74.89
2023-09-27T23:53:37.399Z,75.32
2023-09-27T23:56:07.843Z,74.92
2023-09-27T23:58:35.722Z,74.90
